Pikeville, Kentucky
Current Conditions -  °F | °C
As of 4:55 AM on Saturday 01 Nov 2014 (Local Time) from KPBX Reporting Station
Light Snow Light Snow  
Wind Chill: 27°   Ceiling: 300
Heat Index: 32°   Visibility: 2.5mi
Dew Point: 32°   Wind: 6mph
Humidity: 99%   Direction: 290°WNW
Pressure: 29.88"   Gusts: NA
Location:  37.48°N, 82.52°W
Report Text: KPBX 010855Z AUTO 29005KT 2 1/2SM -SN OVC003 00/00 A2988 RMK AO2 T00020000
Loading
Personal Weather Stations






























Interactive Weather Map
Tropical Storm Tracking
New forecast layout! Learn more

10-Day Weather Forecast

Advertisements
Track Severe Weather on mobile